createdAt,value
2018-06-15T00:00:23.807Z,1012.27
2018-06-15T00:01:23.616Z,1012.29
2018-06-15T00:02:23.845Z,1012.29
2018-06-15T00:03:23.979Z,1012.27
2018-06-15T00:04:23.716Z,1012.27
2018-06-15T00:05:23.742Z,1012.26
2018-06-15T00:06:24.105Z,1012.22
2018-06-15T00:07:23.811Z,1012.25
2018-06-15T00:08:24.062Z,1012.26
2018-06-15T00:09:23.878Z,1012.26
2018-06-15T00:10:23.985Z,1012.26
2018-06-15T00:11:24.320Z,1012.28
2018-06-15T00:12:24.049Z,1012.25
2018-06-15T00:13:24.077Z,1012.27
2018-06-15T00:14:24.117Z,1012.25
2018-06-15T00:16:24.408Z,1012.24
2018-06-15T00:17:24.207Z,1012.25
2018-06-15T00:18:24.364Z,1012.24
2018-06-15T00:19:24.470Z,1012.26
2018-06-15T00:20:24.234Z,1012.24
2018-06-15T00:21:24.312Z,1012.21
2018-06-15T00:22:24.424Z,1012.16
2018-06-15T00:23:24.804Z,1012.17
2018-06-15T00:24:24.360Z,1012.18
2018-06-15T00:25:24.471Z,1012.19
2018-06-15T00:26:24.498Z,1012.14
2018-06-15T00:27:24.531Z,1012.16
2018-06-15T00:28:24.585Z,1012.23
2018-06-15T00:29:24.595Z,1012.22
2018-06-15T00:30:24.930Z,1012.26
2018-06-15T00:31:24.659Z,1012.24
2018-06-15T00:33:24.778Z,1012.22
2018-06-15T00:34:24.684Z,1012.22
2018-06-15T00:36:25.050Z,1012.22
2018-06-15T00:37:24.782Z,1012.22
2018-06-15T00:38:24.898Z,1012.23
2018-06-15T00:39:24.925Z,1012.21
2018-06-15T00:40:24.953Z,1012.18
2018-06-15T00:41:24.922Z,1012.17
2018-06-15T00:42:25.013Z,1012.17
2018-06-15T00:43:25.332Z,1012.18
2018-06-15T00:44:25.090Z,1012.19
2018-06-15T00:45:25.043Z,1012.19
2018-06-15T00:46:25.167Z,1012.21
2018-06-15T00:47:25.303Z,1012.20
2018-06-15T00:48:25.138Z,1012.18
2018-06-15T00:49:25.559Z,1012.18
2018-06-15T00:50:25.583Z,1012.23
2018-06-15T00:51:25.433Z,1012.17
2018-06-15T00:52:25.284Z,1012.17
2018-06-15T00:53:25.318Z,1012.17
2018-06-15T00:54:25.862Z,1012.14
2018-06-15T00:55:25.370Z,1012.17
2018-06-15T00:56:25.478Z,1012.17
2018-06-15T00:57:25.802Z,1012.16
2018-06-15T00:58:25.556Z,1012.13
2018-06-15T00:59:25.629Z,1012.14
2018-06-15T01:00:25.616Z,1012.15
2018-06-15T01:01:25.634Z,1012.17
2018-06-15T01:02:25.812Z,1012.12
2018-06-15T01:03:25.621Z,1012.09
2018-06-15T01:04:26.005Z,1012.11
2018-06-15T01:05:25.785Z,1012.11
2018-06-15T01:06:25.920Z,1012.15
2018-06-15T01:07:26.027Z,1012.09
2018-06-15T01:08:25.867Z,1012.08
2018-06-15T01:09:25.892Z,1012.10
2018-06-15T01:10:25.920Z,1012.08
2018-06-15T01:11:26.557Z,1012.05
2018-06-15T01:12:25.930Z,1012.04
2018-06-15T01:13:26.328Z,1012.03
2018-06-15T01:14:26.110Z,1012.01
2018-06-15T01:15:26.009Z,1012.02
2018-06-15T01:16:26.872Z,1011.97
2018-06-15T01:17:26.091Z,1011.97
2018-06-15T01:18:26.459Z,1011.96
2018-06-15T01:19:26.262Z,1011.96
2018-06-15T01:20:26.326Z,1011.95
2018-06-15T01:21:26.211Z,1011.93
2018-06-15T01:22:26.690Z,1011.91
2018-06-15T01:24:27.027Z,1011.93
2018-06-15T01:25:26.386Z,1011.94
2018-06-15T01:26:26.619Z,1011.89
2018-06-15T01:27:26.400Z,1011.89
2018-06-15T01:28:26.483Z,1011.88
2018-06-15T01:29:26.513Z,1011.89
2018-06-15T01:30:26.545Z,1011.93
2018-06-15T01:31:26.959Z,1011.89
2018-06-15T01:32:26.610Z,1011.87
2018-06-15T01:33:26.669Z,1011.88
2018-06-15T01:34:26.624Z,1011.83
2018-06-15T01:35:26.750Z,1011.85
2018-06-15T01:36:26.763Z,1011.88
2018-06-15T01:37:27.001Z,1011.86
2018-06-15T01:38:27.105Z,1011.84
2018-06-15T01:39:26.864Z,1011.82
2018-06-15T01:40:27.023Z,1011.82
2018-06-15T01:41:26.942Z,1011.81
2018-06-15T01:42:26.937Z,1011.80
2018-06-15T01:43:26.915Z,1011.76
2018-06-15T01:44:27.375Z,1011.76
2018-06-15T01:45:26.991Z,1011.80
2018-06-15T01:46:27.188Z,1011.81
2018-06-15T01:47:27.125Z,1011.79
2018-06-15T01:48:27.158Z,1011.84
2018-06-15T01:49:27.112Z,1011.83
2018-06-15T01:50:27.495Z,1011.86
2018-06-15T01:52:27.216Z,1011.84
2018-06-15T01:53:27.246Z,1011.88
2018-06-15T01:54:27.394Z,1011.87
2018-06-15T01:55:27.382Z,1011.83
2018-06-15T01:56:27.714Z,1011.85
2018-06-15T01:57:27.624Z,1011.86
2018-06-15T01:58:27.495Z,1011.87
2018-06-15T01:59:27.487Z,1011.85
2018-06-15T02:00:27.472Z,1011.84
2018-06-15T02:01:28.091Z,1011.82
2018-06-15T02:02:28.014Z,1011.84
2018-06-15T02:03:27.696Z,1011.87
2018-06-15T02:04:27.602Z,1011.86
2018-06-15T02:06:27.667Z,1011.85
2018-06-15T02:07:27.696Z,1011.83
2018-06-15T02:08:28.404Z,1011.84
2018-06-15T02:09:27.837Z,1011.87
2018-06-15T02:10:27.847Z,1011.87
2018-06-15T02:11:27.827Z,1011.84
2018-06-15T02:12:27.864Z,1011.87
2018-06-15T02:13:28.025Z,1011.84
2018-06-15T02:14:28.652Z,1011.88
2018-06-15T02:15:27.972Z,1011.89
2018-06-15T02:16:28.295Z,1011.89
2018-06-15T02:17:28.113Z,1011.85
2018-06-15T02:18:28.135Z,1011.89
2018-06-15T02:19:28.159Z,1011.87
2018-06-15T02:20:28.514Z,1011.85
2018-06-15T02:21:28.227Z,1011.84
2018-06-15T02:22:28.186Z,1011.86
2018-06-15T02:23:28.292Z,1011.85
2018-06-15T02:24:28.373Z,1011.85
2018-06-15T02:25:28.671Z,1011.85
2018-06-15T02:26:28.665Z,1011.87
2018-06-15T02:28:28.383Z,1011.86
2018-06-15T02:29:28.485Z,1011.89
2018-06-15T02:30:28.856Z,1011.86
2018-06-15T02:31:28.480Z,1011.84
2018-06-15T02:32:28.943Z,1011.85
2018-06-15T02:33:28.616Z,1011.85
2018-06-15T02:35:28.659Z,1011.84
2018-06-15T02:36:28.844Z,1011.83
2018-06-15T02:37:28.678Z,1011.80
2018-06-15T02:38:29.138Z,1011.83
2018-06-15T02:39:28.957Z,1011.84
2018-06-15T02:40:28.843Z,1011.86
2018-06-15T02:41:28.877Z,1011.87
2018-06-15T02:42:28.834Z,1011.86
2018-06-15T02:43:28.944Z,1011.87
2018-06-15T02:44:29.448Z,1011.85
2018-06-15T02:45:29.121Z,1011.90
2018-06-15T02:46:28.964Z,1011.87
2018-06-15T02:47:29.370Z,1011.87
2018-06-15T02:48:29.149Z,1011.87
2018-06-15T02:49:29.136Z,1011.90
2018-06-15T02:50:29.568Z,1011.87
2018-06-15T02:51:29.176Z,1011.88
2018-06-15T02:52:29.560Z,1011.84
2018-06-15T02:53:29.305Z,1011.87
2018-06-15T02:54:29.294Z,1011.89
2018-06-15T02:55:29.262Z,1011.87
2018-06-15T02:56:29.363Z,1011.89
2018-06-15T02:57:29.912Z,1011.88
2018-06-15T02:58:29.351Z,1011.88
2018-06-15T02:59:29.498Z,1011.90
2018-06-15T03:00:29.631Z,1011.91
2018-06-15T03:01:29.466Z,1011.92
2018-06-15T03:02:29.556Z,1011.95
2018-06-15T03:03:29.602Z,1011.90
2018-06-15T03:05:29.980Z,1011.96
2018-06-15T03:06:29.611Z,1011.97
2018-06-15T03:07:29.720Z,1011.99
2018-06-15T03:08:29.721Z,1012.00
2018-06-15T03:10:30.067Z,1011.99
2018-06-15T03:11:30.025Z,1012.04
2018-06-15T03:12:30.234Z,1012.03
2018-06-15T03:13:29.842Z,1012.02
2018-06-15T03:14:30.197Z,1011.99
2018-06-15T03:15:30.146Z,1011.97
2018-06-15T03:16:29.933Z,1012.00
2018-06-15T03:17:30.049Z,1011.99
2018-06-15T03:18:30.091Z,1011.94
2018-06-15T03:21:30.403Z,1011.97
2018-06-15T03:22:30.203Z,1011.95
2018-06-15T03:23:30.183Z,1011.93
2018-06-15T03:24:30.405Z,1011.97
2018-06-15T03:25:30.302Z,1011.91
2018-06-15T03:26:30.617Z,1011.93
2018-06-15T03:28:30.949Z,1011.95
2018-06-15T03:29:30.363Z,1011.97
2018-06-15T03:30:30.518Z,1012.01
2018-06-15T03:31:30.424Z,1012.00
2018-06-15T03:32:30.933Z,1011.97
2018-06-15T03:33:30.869Z,1011.96
2018-06-15T03:34:30.521Z,1011.97
2018-06-15T03:35:30.924Z,1011.97
2018-06-15T03:36:30.667Z,1011.96
2018-06-15T03:37:30.707Z,1012.00
2018-06-15T03:38:30.781Z,1012.00
2018-06-15T03:39:30.976Z,1012.02
2018-06-15T03:40:30.829Z,1012.01
2018-06-15T03:41:30.746Z,1012.00
2018-06-15T03:42:31.071Z,1011.99
2018-06-15T03:44:31.225Z,1012.01
2018-06-15T03:47:31.012Z,1012.06
2018-06-15T03:48:31.385Z,1012.08
2018-06-15T03:49:31.298Z,1012.09
2018-06-15T03:53:31.354Z,1012.13
2018-06-15T03:55:31.459Z,1012.18
2018-06-15T03:56:31.212Z,1012.19
2018-06-15T03:57:31.286Z,1012.17
2018-06-15T03:58:31.254Z,1012.18
2018-06-15T03:59:31.295Z,1012.15
2018-06-15T04:00:31.466Z,1012.18
2018-06-15T04:01:31.521Z,1012.22
2018-06-15T04:02:31.437Z,1012.18
2018-06-15T04:03:32.171Z,1012.18
2018-06-15T04:04:31.497Z,1012.21
2018-06-15T04:05:31.481Z,1012.18
2018-06-15T04:06:31.517Z,1012.22
2018-06-15T04:07:31.546Z,1012.17
2018-06-15T04:09:31.957Z,1012.21
2018-06-15T04:10:31.642Z,1012.22
2018-06-15T04:11:31.947Z,1012.25
2018-06-15T04:12:31.760Z,1012.25
2018-06-15T04:13:31.740Z,1012.22
2018-06-15T04:14:32.158Z,1012.25
2018-06-15T04:15:31.949Z,1012.24
2018-06-15T04:16:32.212Z,1012.22
2018-06-15T04:17:32.117Z,1012.21
2018-06-15T04:18:31.948Z,1012.29
2018-06-15T04:19:32.308Z,1012.24
2018-06-15T04:20:32.018Z,1012.25
2018-06-15T04:21:32.145Z,1012.24
2018-06-15T04:22:32.385Z,1012.23
2018-06-15T04:23:32.127Z,1012.23
2018-06-15T04:24:32.450Z,1012.25
2018-06-15T04:25:32.813Z,1012.22
2018-06-15T04:26:32.184Z,1012.26
2018-06-15T04:27:32.440Z,1012.24
2018-06-15T04:28:32.527Z,1012.23
2018-06-15T04:29:32.311Z,1012.24
2018-06-15T04:30:32.299Z,1012.29
2018-06-15T04:31:32.322Z,1012.25
2018-06-15T04:32:32.365Z,1012.24
2018-06-15T04:34:32.715Z,1012.26
2018-06-15T04:35:32.496Z,1012.26
2018-06-15T04:36:32.540Z,1012.30
2018-06-15T04:37:32.566Z,1012.32
2018-06-15T04:38:32.560Z,1012.33
2018-06-15T04:39:32.580Z,1012.32
2018-06-15T04:40:32.916Z,1012.32
2018-06-15T04:41:32.998Z,1012.34
2018-06-15T04:42:33.081Z,1012.37
2018-06-15T04:43:32.709Z,1012.32
2018-06-15T04:44:32.945Z,1012.29
2018-06-15T04:45:33.077Z,1012.36
2018-06-15T04:47:33.139Z,1012.39
2018-06-15T04:48:33.346Z,1012.35
2018-06-15T04:49:32.909Z,1012.39
2018-06-15T04:50:32.943Z,1012.37
2018-06-15T04:51:33.019Z,1012.43
2018-06-15T04:52:38.638Z,1012.37
2018-06-15T04:53:33.387Z,1012.44
2018-06-15T04:54:33.069Z,1012.41
2018-06-15T04:55:33.469Z,1012.42
2018-06-15T04:56:33.132Z,1012.38
2018-06-15T04:57:33.211Z,1012.41
2018-06-15T04:58:33.245Z,1012.42
2018-06-15T04:59:33.579Z,1012.40
2018-06-15T05:00:33.262Z,1012.43
2018-06-15T05:01:33.370Z,1012.43
2018-06-15T05:02:34.092Z,1012.44
2018-06-15T05:04:33.474Z,1012.42
2018-06-15T05:05:33.432Z,1012.42
2018-06-15T05:08:33.527Z,1012.39
2018-06-15T05:09:33.983Z,1012.39
2018-06-15T05:10:33.641Z,1012.40
2018-06-15T05:11:33.968Z,1012.40
2018-06-15T05:12:33.660Z,1012.38
2018-06-15T05:13:34.039Z,1012.39
2018-06-15T05:14:34.286Z,1012.35
2018-06-15T05:15:33.801Z,1012.32
2018-06-15T05:17:34.110Z,1012.36
2018-06-15T05:18:33.894Z,1012.31
2018-06-15T05:19:33.880Z,1012.31
2018-06-15T05:20:33.925Z,1012.34
2018-06-15T05:21:34.004Z,1012.31
2018-06-15T05:23:34.311Z,1012.29
2018-06-15T05:24:34.052Z,1012.31
2018-06-15T05:25:34.150Z,1012.33
2018-06-15T05:26:34.468Z,1012.36
2018-06-15T05:28:34.238Z,1012.36
2018-06-15T05:31:34.532Z,1012.43
2018-06-15T05:32:34.359Z,1012.38
2018-06-15T05:33:34.348Z,1012.38
2018-06-15T05:34:34.371Z,1012.39
2018-06-15T05:35:34.405Z,1012.42
2018-06-15T05:36:34.493Z,1012.47
2018-06-15T05:37:34.674Z,1012.46
2018-06-15T05:38:35.183Z,1012.51
2018-06-15T05:39:34.538Z,1012.53
2018-06-15T05:40:34.564Z,1012.58
2018-06-15T05:41:35.005Z,1012.59
2018-06-15T05:42:34.891Z,1012.59
2018-06-15T05:43:34.677Z,1012.54
2018-06-15T05:44:34.698Z,1012.57
2018-06-15T05:45:35.435Z,1012.56
2018-06-15T05:46:34.760Z,1012.56
2018-06-15T05:47:34.797Z,1012.56
2018-06-15T05:48:34.878Z,1012.61
2018-06-15T05:49:34.908Z,1012.63
2018-06-15T05:50:35.092Z,1012.61
2018-06-15T05:52:35.327Z,1012.64
2018-06-15T05:53:34.996Z,1012.58
2018-06-15T05:54:35.073Z,1012.58
2018-06-15T05:55:35.128Z,1012.61
2018-06-15T05:56:35.342Z,1012.66
2018-06-15T05:57:35.124Z,1012.59
2018-06-15T05:59:35.491Z,1012.64
2018-06-15T06:00:35.223Z,1012.62
2018-06-15T06:01:35.581Z,1012.68
2018-06-15T06:02:35.332Z,1012.66
2018-06-15T06:03:35.324Z,1012.63
2018-06-15T06:04:35.359Z,1012.66
2018-06-15T06:05:35.395Z,1012.60
2018-06-15T06:07:35.810Z,1012.62
2018-06-15T06:08:35.690Z,1012.66
2018-06-15T06:09:35.519Z,1012.64
2018-06-15T06:10:35.551Z,1012.64
2018-06-15T06:11:35.645Z,1012.65
2018-06-15T06:12:35.619Z,1012.65
2018-06-15T06:13:35.660Z,1012.65
2018-06-15T06:14:36.015Z,1012.65
2018-06-15T06:15:35.716Z,1012.68
2018-06-15T06:16:35.799Z,1012.64
2018-06-15T06:17:35.828Z,1012.64
2018-06-15T06:19:35.870Z,1012.64
2018-06-15T06:20:35.934Z,1012.69
2018-06-15T06:21:36.217Z,1012.71
2018-06-15T06:22:37.037Z,1012.73
2018-06-15T06:24:36.189Z,1012.76
2018-06-15T06:25:36.048Z,1012.80
2018-06-15T06:26:36.102Z,1012.81
2018-06-15T06:27:36.429Z,1012.81
2018-06-15T06:28:36.698Z,1012.85
2018-06-15T06:29:36.257Z,1012.87
2018-06-15T06:30:36.566Z,1012.87
2018-06-15T06:31:36.303Z,1012.86
2018-06-15T06:32:37.560Z,1012.88
2018-06-15T06:33:36.312Z,1012.86
2018-06-15T06:34:37.388Z,1012.90
2018-06-15T06:35:36.725Z,1012.90
2018-06-15T06:36:36.413Z,1012.90
2018-06-15T06:37:36.649Z,1012.86
2018-06-15T06:38:36.485Z,1012.93
2018-06-15T06:39:36.561Z,1012.89
2018-06-15T06:40:36.579Z,1012.89
2018-06-15T06:41:36.578Z,1012.92
2018-06-15T06:42:36.919Z,1012.90
2018-06-15T06:43:36.647Z,1012.93
2018-06-15T06:44:36.892Z,1012.91
2018-06-15T06:45:36.710Z,1012.98
2018-06-15T06:46:37.705Z,1012.98
2018-06-15T06:47:37.034Z,1012.95
2018-06-15T06:48:36.812Z,1012.94
2018-06-15T06:49:37.120Z,1012.94
2018-06-15T06:50:36.942Z,1012.97
2018-06-15T06:51:36.968Z,1013.00
2018-06-15T06:52:37.164Z,1012.98
2018-06-15T06:53:37.040Z,1012.93
2018-06-15T06:54:37.019Z,1013.01
2018-06-15T06:55:37.346Z,1012.97
2018-06-15T06:56:37.133Z,1012.97
2018-06-15T06:57:37.163Z,1012.98
2018-06-15T06:58:37.153Z,1012.99
2018-06-15T06:59:37.440Z,1012.98
2018-06-15T07:00:37.221Z,1012.98
2018-06-15T07:01:37.552Z,1012.99
2018-06-15T07:02:37.328Z,1012.94
2018-06-15T07:03:37.364Z,1012.96
2018-06-15T07:04:37.404Z,1012.93
2018-06-15T07:05:37.631Z,1012.96
2018-06-15T07:06:37.416Z,1012.95
2018-06-15T07:07:37.800Z,1012.90
2018-06-15T07:08:37.512Z,1012.93
2018-06-15T07:09:37.565Z,1012.91
2018-06-15T07:10:37.579Z,1012.94
2018-06-15T07:11:37.594Z,1012.90
2018-06-15T07:12:37.617Z,1012.93
2018-06-15T07:13:37.963Z,1012.93
2018-06-15T07:14:37.687Z,1012.94
2018-06-15T07:15:37.781Z,1012.96
2018-06-15T07:16:38.004Z,1012.91
2018-06-15T07:17:37.789Z,1012.94
2018-06-15T07:18:37.869Z,1012.97
2018-06-15T07:19:38.107Z,1012.94
2018-06-15T07:20:38.340Z,1012.97
2018-06-15T07:21:37.934Z,1012.97
2018-06-15T07:22:38.307Z,1012.95
2018-06-15T07:23:38.087Z,1012.94
2018-06-15T07:24:38.228Z,1012.94
2018-06-15T07:25:38.357Z,1012.91
2018-06-15T07:27:38.224Z,1012.94
2018-06-15T07:28:38.207Z,1012.94
2018-06-15T07:29:38.248Z,1012.89
2018-06-15T07:30:38.493Z,1012.86
2018-06-15T07:31:38.512Z,1012.90
2018-06-15T07:32:38.858Z,1012.83
2018-06-15T07:33:38.390Z,1012.89
2018-06-15T07:34:38.381Z,1012.85
2018-06-15T07:36:38.436Z,1012.82
2018-06-15T07:37:38.514Z,1012.86
2018-06-15T07:38:38.755Z,1012.86
2018-06-15T07:39:38.535Z,1012.87
2018-06-15T07:40:38.571Z,1012.87
2018-06-15T07:41:38.806Z,1012.87
2018-06-15T07:42:38.993Z,1012.85
2018-06-15T07:43:38.726Z,1012.87
2018-06-15T07:44:39.521Z,1012.85
2018-06-15T07:45:38.813Z,1012.89
2018-06-15T07:46:38.829Z,1012.88
2018-06-15T07:47:38.889Z,1012.89
2018-06-15T07:49:38.931Z,1012.88
2018-06-15T07:50:38.961Z,1012.90
2018-06-15T07:52:39.227Z,1012.91
2018-06-15T07:53:39.969Z,1012.95
2018-06-15T07:54:39.056Z,1012.89
2018-06-15T07:55:39.077Z,1012.91
2018-06-15T07:56:39.126Z,1012.91
2018-06-15T07:57:39.704Z,1012.95
2018-06-15T07:58:39.482Z,1012.93
2018-06-15T07:59:39.231Z,1012.95
2018-06-15T08:00:39.301Z,1012.96
2018-06-15T08:03:39.350Z,1012.99
2018-06-15T08:04:39.442Z,1012.98
2018-06-15T08:05:39.749Z,1012.98
2018-06-15T08:06:39.455Z,1012.95
2018-06-15T08:07:39.488Z,1012.93
2018-06-15T08:08:39.523Z,1012.95
2018-06-15T08:09:39.628Z,1012.95
2018-06-15T08:10:39.650Z,1012.93
2018-06-15T08:11:39.876Z,1012.93
2018-06-15T08:12:39.661Z,1012.93
2018-06-15T08:13:39.698Z,1012.96
2018-06-15T08:14:40.028Z,1012.98
2018-06-15T08:15:39.812Z,1012.94
2018-06-15T08:16:39.882Z,1012.98
2018-06-15T08:17:39.887Z,1012.97
2018-06-15T08:18:40.273Z,1012.98
2018-06-15T08:19:40.172Z,1012.93
2018-06-15T08:20:39.967Z,1012.95
2018-06-15T08:21:40.423Z,1012.95
2018-06-15T08:22:40.379Z,1012.95
2018-06-15T08:23:40.090Z,1012.93
2018-06-15T08:24:40.187Z,1012.90
2018-06-15T08:25:40.361Z,1012.92
2018-06-15T08:26:40.155Z,1012.92
2018-06-15T08:27:40.187Z,1012.93
2018-06-15T08:28:40.221Z,1012.89
2018-06-15T08:29:40.241Z,1012.92
2018-06-15T08:30:40.284Z,1012.90
2018-06-15T08:31:40.310Z,1012.92
2018-06-15T08:32:40.600Z,1012.88
2018-06-15T08:33:40.447Z,1012.91
2018-06-15T08:34:40.969Z,1012.87
2018-06-15T08:35:40.557Z,1012.92
2018-06-15T08:36:40.528Z,1012.91
2018-06-15T08:37:40.524Z,1012.92
2018-06-15T08:38:40.605Z,1012.92
2018-06-15T08:39:41.053Z,1012.91
2018-06-15T08:40:40.670Z,1012.94
2018-06-15T08:41:41.005Z,1012.89
2018-06-15T08:42:40.736Z,1012.95
2018-06-15T08:43:40.775Z,1012.92
2018-06-15T08:44:40.809Z,1012.93
2018-06-15T08:45:40.840Z,1012.95
2018-06-15T08:46:41.434Z,1012.92
2018-06-15T08:47:41.062Z,1012.90
2018-06-15T08:48:40.909Z,1012.87
2018-06-15T08:49:41.130Z,1012.88
2018-06-15T08:50:40.964Z,1012.88
2018-06-15T08:51:41.047Z,1012.90
2018-06-15T08:52:41.185Z,1012.94
2018-06-15T08:53:41.317Z,1012.93
2018-06-15T08:54:41.100Z,1012.90
2018-06-15T08:55:41.134Z,1012.92
2018-06-15T08:56:41.175Z,1012.93
2018-06-15T08:57:41.207Z,1012.97
2018-06-15T08:58:41.297Z,1012.92
2018-06-15T09:00:41.656Z,1012.93
2018-06-15T09:01:41.413Z,1012.90
2018-06-15T09:02:41.579Z,1012.87
2018-06-15T09:03:41.688Z,1012.90
2018-06-15T09:04:41.539Z,1012.91
2018-06-15T09:05:41.513Z,1012.95
2018-06-15T09:06:41.566Z,1012.93
2018-06-15T09:07:42.111Z,1012.88
2018-06-15T09:08:41.967Z,1012.89
2018-06-15T09:09:41.674Z,1012.86
2018-06-15T09:10:41.711Z,1012.86
2018-06-15T09:11:41.692Z,1012.90
2018-06-15T09:12:41.775Z,1012.87
2018-06-15T09:13:41.911Z,1012.86
2018-06-15T09:14:42.098Z,1012.84
2018-06-15T09:15:41.986Z,1012.84
2018-06-15T09:16:41.862Z,1012.84
2018-06-15T09:18:42.030Z,1012.83
2018-06-15T09:19:42.013Z,1012.80
2018-06-15T09:20:42.008Z,1012.82
2018-06-15T09:21:42.331Z,1012.75
2018-06-15T09:22:42.128Z,1012.77
2018-06-15T09:23:42.113Z,1012.78
2018-06-15T09:24:42.189Z,1012.78
2018-06-15T09:25:42.227Z,1012.75
2018-06-15T09:26:42.281Z,1012.80
2018-06-15T09:27:42.249Z,1012.79
2018-06-15T09:28:42.780Z,1012.79
2018-06-15T09:30:42.398Z,1012.82
2018-06-15T09:31:42.587Z,1012.79
2018-06-15T09:32:42.534Z,1012.84
2018-06-15T09:33:42.452Z,1012.85
2018-06-15T09:34:42.485Z,1012.82
2018-06-15T09:35:43.021Z,1012.85
2018-06-15T09:36:42.605Z,1012.84
2018-06-15T09:37:42.588Z,1012.83
2018-06-15T09:38:42.622Z,1012.77
2018-06-15T09:39:42.706Z,1012.78
2018-06-15T09:40:42.751Z,1012.80
2018-06-15T09:41:43.073Z,1012.78
2018-06-15T09:42:42.913Z,1012.82
2018-06-15T09:43:42.811Z,1012.85
2018-06-15T09:44:42.880Z,1012.81
2018-06-15T09:45:42.877Z,1012.86
2018-06-15T09:46:42.900Z,1012.87
2018-06-15T09:48:43.318Z,1012.84
2018-06-15T09:49:43.011Z,1012.85
2018-06-15T09:50:43.239Z,1012.81
2018-06-15T09:52:43.214Z,1012.81
2018-06-15T09:53:43.151Z,1012.87
2018-06-15T09:54:43.775Z,1012.87
2018-06-15T09:55:43.216Z,1012.87
2018-06-15T09:56:43.298Z,1012.81
2018-06-15T09:57:43.280Z,1012.81
2018-06-15T09:58:43.364Z,1012.80
2018-06-15T09:59:43.396Z,1012.79
2018-06-15T10:00:43.685Z,1012.81
2018-06-15T10:01:43.442Z,1012.80
2018-06-15T10:02:44.126Z,1012.82
2018-06-15T10:03:43.555Z,1012.85
2018-06-15T10:04:43.587Z,1012.81
2018-06-15T10:05:43.562Z,1012.81
2018-06-15T10:06:43.947Z,1012.78
2018-06-15T10:07:43.880Z,1012.82
2018-06-15T10:08:43.662Z,1012.82
2018-06-15T10:09:43.702Z,1012.85
2018-06-15T10:10:43.742Z,1012.85
2018-06-15T10:11:44.239Z,1012.82
2018-06-15T10:13:44.625Z,1012.80
2018-06-15T10:14:43.926Z,1012.82
2018-06-15T10:15:43.973Z,1012.80
2018-06-15T10:16:43.979Z,1012.79
2018-06-15T10:17:44.030Z,1012.81
2018-06-15T10:18:44.029Z,1012.79
2018-06-15T10:19:44.803Z,1012.77
2018-06-15T10:20:44.256Z,1012.76
2018-06-15T10:21:44.115Z,1012.77
2018-06-15T10:22:44.151Z,1012.78
2018-06-15T10:24:44.232Z,1012.77
2018-06-15T10:25:44.263Z,1012.78
2018-06-15T10:26:44.592Z,1012.74
2018-06-15T10:27:44.350Z,1012.75
2018-06-15T10:28:44.628Z,1012.76
2018-06-15T10:29:44.609Z,1012.73
2018-06-15T10:30:44.481Z,1012.71
2018-06-15T10:31:44.873Z,1012.75
2018-06-15T10:32:44.808Z,1012.75
2018-06-15T10:33:44.535Z,1012.72
2018-06-15T10:34:44.921Z,1012.74
2018-06-15T10:35:44.612Z,1012.73
2018-06-15T10:36:44.708Z,1012.72
2018-06-15T10:37:44.682Z,1012.74
2018-06-15T10:38:44.963Z,1012.72
2018-06-15T10:39:44.811Z,1012.70
2018-06-15T10:40:44.837Z,1012.70
2018-06-15T10:41:44.819Z,1012.68
2018-06-15T10:42:44.854Z,1012.65
2018-06-15T10:43:45.395Z,1012.69
2018-06-15T10:44:45.229Z,1012.66
2018-06-15T10:45:45.052Z,1012.66
2018-06-15T10:46:44.995Z,1012.63
2018-06-15T10:47:45.091Z,1012.61
2018-06-15T10:48:45.064Z,1012.64
2018-06-15T10:49:45.156Z,1012.65
2018-06-15T10:50:45.381Z,1012.65
2018-06-15T10:51:45.221Z,1012.63
2018-06-15T10:52:45.251Z,1012.65
2018-06-15T10:53:45.343Z,1012.65
2018-06-15T10:54:45.525Z,1012.64
2018-06-15T10:55:45.370Z,1012.64
2018-06-15T10:56:45.688Z,1012.64
2018-06-15T10:57:45.376Z,1012.63
2018-06-15T10:58:45.418Z,1012.61
2018-06-15T10:59:45.902Z,1012.62
2018-06-15T11:01:45.572Z,1012.65
2018-06-15T11:02:45.621Z,1012.59
2018-06-15T11:03:45.837Z,1012.59
2018-06-15T11:04:45.626Z,1012.57
2018-06-15T11:05:45.660Z,1012.57
2018-06-15T11:07:45.742Z,1012.58
2018-06-15T11:09:46.055Z,1012.57
2018-06-15T11:10:45.844Z,1012.57
2018-06-15T11:11:45.871Z,1012.59
2018-06-15T11:12:45.957Z,1012.56
2018-06-15T11:13:46.119Z,1012.58
2018-06-15T11:14:45.993Z,1012.57
2018-06-15T11:15:46.070Z,1012.59
2018-06-15T11:16:46.699Z,1012.62
2018-06-15T11:17:46.145Z,1012.56
2018-06-15T11:18:46.163Z,1012.55
2018-06-15T11:19:46.247Z,1012.55
2018-06-15T11:20:46.388Z,1012.55
2018-06-15T11:21:46.274Z,1012.55
2018-06-15T11:22:46.303Z,1012.53
2018-06-15T11:23:46.652Z,1012.50
2018-06-15T11:25:46.367Z,1012.55
2018-06-15T11:26:46.609Z,1012.50
2018-06-15T11:27:46.447Z,1012.51
2018-06-15T11:28:46.465Z,1012.53
2018-06-15T11:29:46.598Z,1012.51
2018-06-15T11:30:46.833Z,1012.48
2018-06-15T11:31:46.747Z,1012.46
2018-06-15T11:32:46.653Z,1012.44
2018-06-15T11:33:46.690Z,1012.45
2018-06-15T11:34:47.149Z,1012.45
2018-06-15T11:35:46.925Z,1012.42
2018-06-15T11:36:46.820Z,1012.44
2018-06-15T11:37:47.394Z,1012.44
2018-06-15T11:38:46.870Z,1012.40
2018-06-15T11:39:46.902Z,1012.42
2018-06-15T11:40:47.138Z,1012.39
2018-06-15T11:41:46.974Z,1012.38
2018-06-15T11:42:47.004Z,1012.36
2018-06-15T11:43:47.004Z,1012.36
2018-06-15T11:45:47.368Z,1012.33
2018-06-15T11:46:47.092Z,1012.35
2018-06-15T11:48:47.216Z,1012.32
2018-06-15T11:49:47.258Z,1012.25
2018-06-15T11:50:47.326Z,1012.25
2018-06-15T11:52:47.563Z,1012.25
2018-06-15T11:53:47.342Z,1012.23
2018-06-15T11:54:47.376Z,1012.28
2018-06-15T11:55:47.830Z,1012.25
2018-06-15T11:56:47.452Z,1012.23
2018-06-15T11:57:47.557Z,1012.24
2018-06-15T11:58:47.515Z,1012.25
2018-06-15T11:59:47.645Z,1012.22
2018-06-15T12:00:47.594Z,1012.21
2018-06-15T12:01:47.641Z,1012.20
2018-06-15T12:02:47.661Z,1012.19
2018-06-15T12:03:47.773Z,1012.24
2018-06-15T12:04:47.729Z,1012.23
2018-06-15T12:05:48.075Z,1012.17
2018-06-15T12:06:47.800Z,1012.14
2018-06-15T12:07:47.895Z,1012.15
2018-06-15T12:09:47.966Z,1012.11
2018-06-15T12:10:48.052Z,1012.14
2018-06-15T12:11:48.843Z,1012.13
2018-06-15T12:12:48.261Z,1012.09
2018-06-15T12:13:48.096Z,1012.10
2018-06-15T12:14:48.081Z,1012.13
2018-06-15T12:15:48.173Z,1012.08
2018-06-15T12:17:48.188Z,1012.03
2018-06-15T12:18:48.224Z,1012.01
2018-06-15T12:19:48.616Z,1012.00
2018-06-15T12:20:48.496Z,1012.00
2018-06-15T12:21:48.375Z,1011.99
2018-06-15T12:22:48.410Z,1011.99
2018-06-15T12:23:48.405Z,1012.00
2018-06-15T12:24:48.484Z,1011.95
2018-06-15T12:25:48.721Z,1012.00
2018-06-15T12:26:48.556Z,1011.93
2018-06-15T12:27:48.539Z,1011.96
2018-06-15T12:28:48.622Z,1011.95
2018-06-15T12:29:48.662Z,1011.96
2018-06-15T12:30:48.660Z,1011.96
2018-06-15T12:31:48.983Z,1011.97
2018-06-15T12:32:48.834Z,1011.92
2018-06-15T12:33:48.850Z,1011.96
2018-06-15T12:34:49.041Z,1011.90
2018-06-15T12:35:48.870Z,1011.94
2018-06-15T12:36:48.908Z,1011.90
2018-06-15T12:37:49.192Z,1011.88
2018-06-15T12:38:48.925Z,1011.89
2018-06-15T12:39:49.006Z,1011.92
2018-06-15T12:40:49.004Z,1011.97
2018-06-15T12:41:49.037Z,1011.93
2018-06-15T12:42:49.067Z,1011.96
2018-06-15T12:43:49.501Z,1011.96
2018-06-15T12:44:49.384Z,1011.96
2018-06-15T12:45:49.195Z,1012.01
2018-06-15T12:46:49.261Z,1011.98
2018-06-15T12:47:49.269Z,1012.01
2018-06-15T12:48:49.277Z,1012.00
2018-06-15T12:49:49.820Z,1011.98
2018-06-15T12:50:49.442Z,1011.99
2018-06-15T12:51:49.466Z,1012.03
2018-06-15T12:52:49.497Z,1011.98
2018-06-15T12:53:49.511Z,1012.00
2018-06-15T12:54:49.492Z,1011.95
2018-06-15T12:55:49.825Z,1011.99
2018-06-15T12:56:49.560Z,1012.01
2018-06-15T12:57:49.598Z,1011.99
2018-06-15T12:58:49.631Z,1011.97
2018-06-15T12:59:49.679Z,1012.02
2018-06-15T13:00:49.700Z,1011.99
2018-06-15T13:01:49.991Z,1012.02
2018-06-15T13:02:49.778Z,1011.99
2018-06-15T13:03:49.806Z,1011.96